sensor_id;sensor_type;location;lat;lon;timestamp;P1;durP1;ratioP1;P2;durP2;ratioP2
11685;SDS011;5899;51.282;6.094;2024-01-30T00:01:03;5.60;;;4.90;;
11685;SDS011;5899;51.282;6.094;2024-01-30T00:03:30;7.85;;;5.35;;
11685;SDS011;5899;51.282;6.094;2024-01-30T00:05:58;7.18;;;5.45;;
11685;SDS011;5899;51.282;6.094;2024-01-30T00:08:28;5.55;;;4.75;;
11685;SDS011;5899;51.282;6.094;2024-01-30T00:10:56;5.03;;;4.53;;
11685;SDS011;5899;51.282;6.094;2024-01-30T00:13:25;8.15;;;5.38;;
11685;SDS011;5899;51.282;6.094;2024-01-30T00:15:55;6.90;;;5.57;;
11685;SDS011;5899;51.282;6.094;2024-01-30T00:18:23;7.70;;;5.17;;
11685;SDS011;5899;51.282;6.094;2024-01-30T00:20:53;6.05;;;5.40;;
11685;SDS011;5899;51.282;6.094;2024-01-30T00:23:23;6.87;;;5.53;;
11685;SDS011;5899;51.282;6.094;2024-01-30T00:25:50;7.10;;;4.90;;
11685;SDS011;5899;51.282;6.094;2024-01-30T00:28:18;5.55;;;4.82;;
11685;SDS011;5899;51.282;6.094;2024-01-30T00:30:46;5.75;;;5.15;;
11685;SDS011;5899;51.282;6.094;2024-01-30T00:33:17;5.95;;;5.35;;
11685;SDS011;5899;51.282;6.094;2024-01-30T00:35:43;5.45;;;4.95;;
11685;SDS011;5899;51.282;6.094;2024-01-30T00:38:10;7.07;;;5.53;;
11685;SDS011;5899;51.282;6.094;2024-01-30T00:40:36;7.30;;;5.43;;
11685;SDS011;5899;51.282;6.094;2024-01-30T00:43:03;7.85;;;5.70;;
11685;SDS011;5899;51.282;6.094;2024-01-30T00:45:31;6.40;;;5.20;;
11685;SDS011;5899;51.282;6.094;2024-01-30T00:47:59;7.53;;;5.70;;
11685;SDS011;5899;51.282;6.094;2024-01-30T00:50:25;7.50;;;5.13;;
11685;SDS011;5899;51.282;6.094;2024-01-30T00:52:54;5.88;;;5.15;;
11685;SDS011;5899;51.282;6.094;2024-01-30T00:55:20;5.95;;;5.35;;
11685;SDS011;5899;51.282;6.094;2024-01-30T00:57:47;6.78;;;5.68;;
11685;SDS011;5899;51.282;6.094;2024-01-30T01:00:19;6.75;;;5.30;;
11685;SDS011;5899;51.282;6.094;2024-01-30T01:02:48;5.80;;;5.20;;
11685;SDS011;5899;51.282;6.094;2024-01-30T01:05:21;5.40;;;4.90;;
11685;SDS011;5899;51.282;6.094;2024-01-30T01:07:48;6.70;;;5.47;;
11685;SDS011;5899;51.282;6.094;2024-01-30T01:10:15;6.60;;;5.47;;
11685;SDS011;5899;51.282;6.094;2024-01-30T01:12:45;7.13;;;5.87;;
11685;SDS011;5899;51.282;6.094;2024-01-30T01:15:11;6.82;;;5.32;;
11685;SDS011;5899;51.282;6.094;2024-01-30T01:17:41;7.15;;;5.32;;
11685;SDS011;5899;51.282;6.094;2024-01-30T01:20:07;9.25;;;5.60;;
11685;SDS011;5899;51.282;6.094;2024-01-30T01:22:38;5.47;;;4.68;;
11685;SDS011;5899;51.282;6.094;2024-01-30T01:25:08;7.43;;;5.40;;
11685;SDS011;5899;51.282;6.094;2024-01-30T01:27:35;7.90;;;5.07;;
11685;SDS011;5899;51.282;6.094;2024-01-30T01:30:06;6.97;;;5.55;;
11685;SDS011;5899;51.282;6.094;2024-01-30T01:32:43;5.77;;;5.17;;
11685;SDS011;5899;51.282;6.094;2024-01-30T01:35:15;5.75;;;5.03;;
11685;SDS011;5899;51.282;6.094;2024-01-30T01:37:47;6.63;;;4.93;;
11685;SDS011;5899;51.282;6.094;2024-01-30T01:40:19;6.90;;;5.45;;
11685;SDS011;5899;51.282;6.094;2024-01-30T01:42:46;6.88;;;5.45;;
11685;SDS011;5899;51.282;6.094;2024-01-30T01:45:13;7.65;;;5.70;;
11685;SDS011;5899;51.282;6.094;2024-01-30T01:47:41;8.25;;;5.80;;
11685;SDS011;5899;51.282;6.094;2024-01-30T01:50:08;8.60;;;5.40;;
11685;SDS011;5899;51.282;6.094;2024-01-30T01:52:35;7.68;;;5.70;;
11685;SDS011;5899;51.282;6.094;2024-01-30T01:55:04;5.93;;;4.65;;
11685;SDS011;5899;51.282;6.094;2024-01-30T01:57:30;6.05;;;5.45;;
11685;SDS011;5899;51.282;6.094;2024-01-30T02:00:00;6.88;;;5.60;;
11685;SDS011;5899;51.282;6.094;2024-01-30T02:02:27;9.25;;;5.07;;
11685;SDS011;5899;51.282;6.094;2024-01-30T02:04:58;6.60;;;5.32;;
11685;SDS011;5899;51.282;6.094;2024-01-30T02:07:33;6.57;;;5.10;;
11685;SDS011;5899;51.282;6.094;2024-01-30T02:10:06;7.70;;;5.38;;
11685;SDS011;5899;51.282;6.094;2024-01-30T02:12:33;7.73;;;5.17;;
11685;SDS011;5899;51.282;6.094;2024-01-30T02:15:00;6.28;;;4.85;;
11685;SDS011;5899;51.282;6.094;2024-01-30T02:17:27;6.32;;;4.88;;
11685;SDS011;5899;51.282;6.094;2024-01-30T02:19:53;5.73;;;4.97;;
11685;SDS011;5899;51.282;6.094;2024-01-30T02:22:27;5.10;;;4.57;;
11685;SDS011;5899;51.282;6.094;2024-01-30T02:24:54;5.80;;;4.60;;
11685;SDS011;5899;51.282;6.094;2024-01-30T02:27:20;6.68;;;4.38;;
11685;SDS011;5899;51.282;6.094;2024-01-30T02:29:45;9.00;;;5.00;;
11685;SDS011;5899;51.282;6.094;2024-01-30T02:32:14;6.32;;;5.20;;
11685;SDS011;5899;51.282;6.094;2024-01-30T02:34:40;6.15;;;5.55;;
11685;SDS011;5899;51.282;6.094;2024-01-30T02:37:10;5.77;;;4.30;;
11685;SDS011;5899;51.282;6.094;2024-01-30T02:39:38;5.28;;;4.45;;
11685;SDS011;5899;51.282;6.094;2024-01-30T02:42:07;6.72;;;4.55;;
11685;SDS011;5899;51.282;6.094;2024-01-30T02:44:34;5.82;;;4.93;;
11685;SDS011;5899;51.282;6.094;2024-01-30T02:47:00;5.78;;;5.00;;
11685;SDS011;5899;51.282;6.094;2024-01-30T02:49:27;5.65;;;4.60;;
11685;SDS011;5899;51.282;6.094;2024-01-30T02:51:54;5.63;;;4.60;;
11685;SDS011;5899;51.282;6.094;2024-01-30T02:54:21;7.40;;;4.55;;
11685;SDS011;5899;51.282;6.094;2024-01-30T02:56:50;5.20;;;4.40;;
11685;SDS011;5899;51.282;6.094;2024-01-30T02:59:18;7.00;;;4.60;;
11685;SDS011;5899;51.282;6.094;2024-01-30T03:01:44;6.63;;;4.72;;
11685;SDS011;5899;51.282;6.094;2024-01-30T03:04:15;5.13;;;4.50;;
11685;SDS011;5899;51.282;6.094;2024-01-30T03:06:44;6.13;;;4.45;;
11685;SDS011;5899;51.282;6.094;2024-01-30T03:09:11;5.90;;;4.82;;
11685;SDS011;5899;51.282;6.094;2024-01-30T03:11:38;6.18;;;4.60;;
11685;SDS011;5899;51.282;6.094;2024-01-30T03:14:06;4.43;;;4.03;;
11685;SDS011;5899;51.282;6.094;2024-01-30T03:16:36;5.25;;;4.72;;
11685;SDS011;5899;51.282;6.094;2024-01-30T03:19:05;7.68;;;5.07;;
11685;SDS011;5899;51.282;6.094;2024-01-30T03:21:32;5.80;;;4.78;;
11685;SDS011;5899;51.282;6.094;2024-01-30T03:23:59;7.18;;;4.30;;
11685;SDS011;5899;51.282;6.094;2024-01-30T03:26:26;6.20;;;4.30;;
11685;SDS011;5899;51.282;6.094;2024-01-30T03:28:53;5.63;;;4.10;;
11685;SDS011;5899;51.282;6.094;2024-01-30T03:31:23;6.07;;;4.25;;
11685;SDS011;5899;51.282;6.094;2024-01-30T03:33:50;8.87;;;4.43;;
11685;SDS011;5899;51.282;6.094;2024-01-30T03:36:16;4.75;;;4.03;;
11685;SDS011;5899;51.282;6.094;2024-01-30T03:38:45;4.78;;;4.13;;
11685;SDS011;5899;51.282;6.094;2024-01-30T03:41:11;5.90;;;4.05;;
11685;SDS011;5899;51.282;6.094;2024-01-30T03:43:38;4.53;;;4.05;;
11685;SDS011;5899;51.282;6.094;2024-01-30T03:46:04;6.65;;;4.55;;
11685;SDS011;5899;51.282;6.094;2024-01-30T03:48:32;4.88;;;3.80;;
11685;SDS011;5899;51.282;6.094;2024-01-30T03:50:59;4.95;;;4.10;;
11685;SDS011;5899;51.282;6.094;2024-01-30T03:53:25;6.18;;;3.90;;
11685;SDS011;5899;51.282;6.094;2024-01-30T03:55:55;5.32;;;4.05;;
11685;SDS011;5899;51.282;6.094;2024-01-30T03:58:23;7.43;;;4.20;;
11685;SDS011;5899;51.282;6.094;2024-01-30T04:00:50;5.20;;;4.13;;
11685;SDS011;5899;51.282;6.094;2024-01-30T04:03:17;5.00;;;4.07;;
11685;SDS011;5899;51.282;6.094;2024-01-30T04:05:47;4.28;;;3.67;;
11685;SDS011;5899;51.282;6.094;2024-01-30T04:08:14;5.35;;;3.90;;
11685;SDS011;5899;51.282;6.094;2024-01-30T04:10:40;4.50;;;3.55;;
11685;SDS011;5899;51.282;6.094;2024-01-30T04:13:07;5.53;;;4.10;;
11685;SDS011;5899;51.282;6.094;2024-01-30T04:15:33;4.73;;;3.70;;
11685;SDS011;5899;51.282;6.094;2024-01-30T04:18:00;4.63;;;4.00;;
11685;SDS011;5899;51.282;6.094;2024-01-30T04:20:27;4.90;;;3.70;;
11685;SDS011;5899;51.282;6.094;2024-01-30T04:22:57;6.32;;;4.20;;
11685;SDS011;5899;51.282;6.094;2024-01-30T04:25:29;4.45;;;3.80;;
11685;SDS011;5899;51.282;6.094;2024-01-30T04:27:56;4.40;;;3.53;;
11685;SDS011;5899;51.282;6.094;2024-01-30T04:30:25;4.30;;;3.55;;
11685;SDS011;5899;51.282;6.094;2024-01-30T04:32:52;5.78;;;4.00;;
11685;SDS011;5899;51.282;6.094;2024-01-30T04:35:20;3.83;;;3.50;;
11685;SDS011;5899;51.282;6.094;2024-01-30T04:37:51;4.25;;;3.85;;
11685;SDS011;5899;51.282;6.094;2024-01-30T04:40:21;4.88;;;3.20;;
11685;SDS011;5899;51.282;6.094;2024-01-30T04:42:48;3.90;;;3.30;;
11685;SDS011;5899;51.282;6.094;2024-01-30T04:45:16;4.05;;;3.65;;
11685;SDS011;5899;51.282;6.094;2024-01-30T04:47:43;4.75;;;3.63;;
11685;SDS011;5899;51.282;6.094;2024-01-30T04:50:09;4.82;;;3.72;;
11685;SDS011;5899;51.282;6.094;2024-01-30T04:52:36;4.18;;;3.55;;
11685;SDS011;5899;51.282;6.094;2024-01-30T04:55:02;4.30;;;3.33;;
11685;SDS011;5899;51.282;6.094;2024-01-30T04:57:33;5.10;;;3.50;;
11685;SDS011;5899;51.282;6.094;2024-01-30T05:00:00;4.50;;;3.72;;
11685;SDS011;5899;51.282;6.094;2024-01-30T05:02:30;3.83;;;3.43;;
11685;SDS011;5899;51.282;6.094;2024-01-30T05:04:56;4.87;;;3.90;;
11685;SDS011;5899;51.282;6.094;2024-01-30T05:07:26;4.50;;;3.53;;
11685;SDS011;5899;51.282;6.094;2024-01-30T05:09:52;5.38;;;4.18;;
11685;SDS011;5899;51.282;6.094;2024-01-30T05:12:21;4.22;;;3.83;;
11685;SDS011;5899;51.282;6.094;2024-01-30T05:14:51;4.10;;;3.53;;
11685;SDS011;5899;51.282;6.094;2024-01-30T05:17:18;5.38;;;3.80;;
11685;SDS011;5899;51.282;6.094;2024-01-30T05:19:54;4.32;;;3.78;;
11685;SDS011;5899;51.282;6.094;2024-01-30T05:22:20;4.60;;;3.67;;
11685;SDS011;5899;51.282;6.094;2024-01-30T05:24:47;3.78;;;3.30;;
11685;SDS011;5899;51.282;6.094;2024-01-30T05:27:13;4.20;;;3.58;;
11685;SDS011;5899;51.282;6.094;2024-01-30T05:29:43;4.40;;;4.00;;
11685;SDS011;5899;51.282;6.094;2024-01-30T05:32:11;5.43;;;4.13;;
11685;SDS011;5899;51.282;6.094;2024-01-30T05:34:37;3.90;;;3.50;;
11685;SDS011;5899;51.282;6.094;2024-01-30T05:37:04;4.90;;;3.40;;
11685;SDS011;5899;51.282;6.094;2024-01-30T05:39:30;5.25;;;3.75;;
11685;SDS011;5899;51.282;6.094;2024-01-30T05:41:58;5.85;;;3.63;;
11685;SDS011;5899;51.282;6.094;2024-01-30T05:44:24;3.88;;;3.47;;
11685;SDS011;5899;51.282;6.094;2024-01-30T05:46:52;4.30;;;3.55;;
11685;SDS011;5899;51.282;6.094;2024-01-30T05:49:21;4.32;;;3.58;;
11685;SDS011;5899;51.282;6.094;2024-01-30T05:51:48;4.13;;;3.45;;
11685;SDS011;5899;51.282;6.094;2024-01-30T05:54:17;5.38;;;4.03;;
11685;SDS011;5899;51.282;6.094;2024-01-30T05:56:43;4.85;;;4.20;;
11685;SDS011;5899;51.282;6.094;2024-01-30T05:59:13;5.13;;;4.00;;
11685;SDS011;5899;51.282;6.094;2024-01-30T06:01:46;6.85;;;4.03;;
11685;SDS011;5899;51.282;6.094;2024-01-30T06:04:13;4.45;;;3.30;;
11685;SDS011;5899;51.282;6.094;2024-01-30T06:06:41;4.57;;;3.42;;
11685;SDS011;5899;51.282;6.094;2024-01-30T06:09:08;4.60;;;4.07;;
11685;SDS011;5899;51.282;6.094;2024-01-30T06:11:47;8.70;;;8.00;;
11685;SDS011;5899;51.282;6.094;2024-01-30T06:14:13;4.20;;;3.70;;
11685;SDS011;5899;51.282;6.094;2024-01-30T06:16:40;5.55;;;4.00;;
11685;SDS011;5899;51.282;6.094;2024-01-30T06:19:07;4.30;;;3.80;;
11685;SDS011;5899;51.282;6.094;2024-01-30T06:21:33;6.45;;;4.20;;
11685;SDS011;5899;51.282;6.094;2024-01-30T06:24:03;4.20;;;3.80;;
11685;SDS011;5899;51.282;6.094;2024-01-30T06:26:33;5.63;;;3.95;;
11685;SDS011;5899;51.282;6.094;2024-01-30T06:29:00;3.73;;;3.33;;
11685;SDS011;5899;51.282;6.094;2024-01-30T06:31:27;5.65;;;3.92;;
11685;SDS011;5899;51.282;6.094;2024-01-30T06:34:00;5.28;;;3.70;;
11685;SDS011;5899;51.282;6.094;2024-01-30T06:36:41;6.35;;;4.15;;
11685;SDS011;5899;51.282;6.094;2024-01-30T06:39:12;6.70;;;4.03;;
11685;SDS011;5899;51.282;6.094;2024-01-30T06:41:40;7.55;;;3.90;;
11685;SDS011;5899;51.282;6.094;2024-01-30T06:44:08;4.00;;;3.60;;
11685;SDS011;5899;51.282;6.094;2024-01-30T06:46:35;4.53;;;3.50;;
11685;SDS011;5899;51.282;6.094;2024-01-30T06:49:02;4.72;;;3.53;;
11685;SDS011;5899;51.282;6.094;2024-01-30T06:51:30;3.90;;;3.42;;
11685;SDS011;5899;51.282;6.094;2024-01-30T06:54:00;5.07;;;3.80;;
11685;SDS011;5899;51.282;6.094;2024-01-30T06:56:32;4.03;;;3.60;;
11685;SDS011;5899;51.282;6.094;2024-01-30T06:59:10;4.72;;;3.65;;
11685;SDS011;5899;51.282;6.094;2024-01-30T07:01:56;4.53;;;3.70;;
11685;SDS011;5899;51.282;6.094;2024-01-30T07:04:27;4.63;;;3.90;;
11685;SDS011;5899;51.282;6.094;2024-01-30T07:06:58;4.90;;;3.50;;
11685;SDS011;5899;51.282;6.094;2024-01-30T07:09:25;4.72;;;3.80;;
11685;SDS011;5899;51.282;6.094;2024-01-30T07:12:00;4.00;;;3.60;;
11685;SDS011;5899;51.282;6.094;2024-01-30T07:14:52;4.18;;;3.78;;
11685;SDS011;5899;51.282;6.094;2024-01-30T07:17:41;4.20;;;3.40;;
11685;SDS011;5899;51.282;6.094;2024-01-30T07:20:27;3.88;;;3.47;;
11685;SDS011;5899;51.282;6.094;2024-01-30T07:22:57;5.07;;;3.85;;
11685;SDS011;5899;51.282;6.094;2024-01-30T07:25:26;4.20;;;3.72;;
11685;SDS011;5899;51.282;6.094;2024-01-30T07:28:04;4.63;;;3.90;;
11685;SDS011;5899;51.282;6.094;2024-01-30T07:30:40;5.03;;;4.43;;
11685;SDS011;5899;51.282;6.094;2024-01-30T07:33:15;5.85;;;4.78;;
11685;SDS011;5899;51.282;6.094;2024-01-30T07:36:01;5.35;;;4.20;;
11685;SDS011;5899;51.282;6.094;2024-01-30T07:38:37;5.38;;;4.47;;
11685;SDS011;5899;51.282;6.094;2024-01-30T07:41:06;5.90;;;4.90;;
11685;SDS011;5899;51.282;6.094;2024-01-30T07:46:23;6.65;;;4.40;;
11685;SDS011;5899;51.282;6.094;2024-01-30T07:48:52;4.93;;;4.05;;
11685;SDS011;5899;51.282;6.094;2024-01-30T07:51:27;5.53;;;4.43;;
11685;SDS011;5899;51.282;6.094;2024-01-30T07:54:11;5.10;;;4.50;;
11685;SDS011;5899;51.282;6.094;2024-01-30T07:56:40;5.35;;;4.57;;
11685;SDS011;5899;51.282;6.094;2024-01-30T07:59:10;6.80;;;4.50;;
11685;SDS011;5899;51.282;6.094;2024-01-30T08:04:35;4.65;;;4.13;;
11685;SDS011;5899;51.282;6.094;2024-01-30T08:07:14;7.00;;;4.88;;
11685;SDS011;5899;51.282;6.094;2024-01-30T08:09:53;5.55;;;4.13;;
11685;SDS011;5899;51.282;6.094;2024-01-30T08:12:31;6.13;;;4.10;;
11685;SDS011;5899;51.282;6.094;2024-01-30T08:15:05;5.65;;;3.88;;
11685;SDS011;5899;51.282;6.094;2024-01-30T08:17:37;4.65;;;4.20;;
11685;SDS011;5899;51.282;6.094;2024-01-30T08:20:09;7.50;;;4.53;;
11685;SDS011;5899;51.282;6.094;2024-01-30T08:22:40;4.45;;;3.90;;
11685;SDS011;5899;51.282;6.094;2024-01-30T08:25:10;4.78;;;3.92;;
11685;SDS011;5899;51.282;6.094;2024-01-30T08:27:39;5.28;;;3.95;;
11685;SDS011;5899;51.282;6.094;2024-01-30T08:30:06;6.05;;;4.47;;
11685;SDS011;5899;51.282;6.094;2024-01-30T08:32:33;5.10;;;4.43;;
11685;SDS011;5899;51.282;6.094;2024-01-30T08:35:03;7.43;;;4.25;;
11685;SDS011;5899;51.282;6.094;2024-01-30T08:37:33;5.28;;;4.05;;
11685;SDS011;5899;51.282;6.094;2024-01-30T08:40:12;4.82;;;4.25;;
11685;SDS011;5899;51.282;6.094;2024-01-30T08:42:38;4.95;;;4.18;;
11685;SDS011;5899;51.282;6.094;2024-01-30T08:45:07;5.03;;;4.40;;
11685;SDS011;5899;51.282;6.094;2024-01-30T08:47:36;5.65;;;4.47;;
11685;SDS011;5899;51.282;6.094;2024-01-30T08:50:03;5.90;;;4.30;;
11685;SDS011;5899;51.282;6.094;2024-01-30T08:52:36;5.00;;;4.45;;
11685;SDS011;5899;51.282;6.094;2024-01-30T08:55:07;6.07;;;4.28;;
11685;SDS011;5899;51.282;6.094;2024-01-30T08:57:43;7.28;;;4.55;;
11685;SDS011;5899;51.282;6.094;2024-01-30T09:00:13;5.05;;;4.25;;
11685;SDS011;5899;51.282;6.094;2024-01-30T09:02:55;4.73;;;3.77;;
11685;SDS011;5899;51.282;6.094;2024-01-30T09:05:26;4.57;;;3.97;;
11685;SDS011;5899;51.282;6.094;2024-01-30T09:10:45;7.95;;;4.70;;
11685;SDS011;5899;51.282;6.094;2024-01-30T09:13:15;5.15;;;3.85;;
11685;SDS011;5899;51.282;6.094;2024-01-30T09:15:43;5.43;;;3.90;;
11685;SDS011;5899;51.282;6.094;2024-01-30T09:18:13;4.73;;;3.90;;
11685;SDS011;5899;51.282;6.094;2024-01-30T09:20:43;6.18;;;3.70;;
11685;SDS011;5899;51.282;6.094;2024-01-30T09:23:11;5.57;;;4.20;;
11685;SDS011;5899;51.282;6.094;2024-01-30T09:25:38;5.03;;;3.63;;
11685;SDS011;5899;51.282;6.094;2024-01-30T09:28:10;4.80;;;3.65;;
11685;SDS011;5899;51.282;6.094;2024-01-30T09:30:38;4.93;;;3.83;;
11685;SDS011;5899;51.282;6.094;2024-01-30T09:33:12;4.88;;;4.10;;
11685;SDS011;5899;51.282;6.094;2024-01-30T09:35:42;5.53;;;4.00;;
11685;SDS011;5899;51.282;6.094;2024-01-30T09:38:22;4.20;;;3.80;;
11685;SDS011;5899;51.282;6.094;2024-01-30T09:40:54;4.10;;;3.70;;
11685;SDS011;5899;51.282;6.094;2024-01-30T09:49:15;4.20;;;3.80;;
11685;SDS011;5899;51.282;6.094;2024-01-30T09:51:44;4.38;;;3.83;;
11685;SDS011;5899;51.282;6.094;2024-01-30T09:54:22;5.93;;;4.10;;
11685;SDS011;5899;51.282;6.094;2024-01-30T09:56:54;5.13;;;4.13;;
11685;SDS011;5899;51.282;6.094;2024-01-30T09:59:23;5.22;;;4.20;;
11685;SDS011;5899;51.282;6.094;2024-01-30T10:01:53;5.28;;;3.97;;
11685;SDS011;5899;51.282;6.094;2024-01-30T10:04:23;5.43;;;3.80;;
11685;SDS011;5899;51.282;6.094;2024-01-30T10:06:54;5.72;;;4.15;;
11685;SDS011;5899;51.282;6.094;2024-01-30T10:09:22;7.20;;;4.37;;
11685;SDS011;5899;51.282;6.094;2024-01-30T10:11:50;6.20;;;3.75;;
11685;SDS011;5899;51.282;6.094;2024-01-30T10:14:20;6.15;;;4.45;;
11685;SDS011;5899;51.282;6.094;2024-01-30T10:16:58;5.90;;;3.92;;
11685;SDS011;5899;51.282;6.094;2024-01-30T10:19:36;5.97;;;4.65;;
11685;SDS011;5899;51.282;6.094;2024-01-30T10:22:06;5.80;;;3.65;;
11685;SDS011;5899;51.282;6.094;2024-01-30T10:24:46;6.70;;;4.33;;
11685;SDS011;5899;51.282;6.094;2024-01-30T10:27:13;6.45;;;3.92;;
11685;SDS011;5899;51.282;6.094;2024-01-30T10:29:40;4.82;;;3.97;;
11685;SDS011;5899;51.282;6.094;2024-01-30T10:32:14;4.35;;;3.95;;
11685;SDS011;5899;51.282;6.094;2024-01-30T10:35:00;6.17;;;4.07;;
11685;SDS011;5899;51.282;6.094;2024-01-30T10:37:37;5.55;;;4.38;;
11685;SDS011;5899;51.282;6.094;2024-01-30T10:40:11;5.57;;;4.07;;
11685;SDS011;5899;51.282;6.094;2024-01-30T10:42:47;4.95;;;3.90;;
11685;SDS011;5899;51.282;6.094;2024-01-30T10:45:14;5.47;;;4.43;;
11685;SDS011;5899;51.282;6.094;2024-01-30T10:47:53;8.88;;;4.55;;
11685;SDS011;5899;51.282;6.094;2024-01-30T10:50:34;5.30;;;4.28;;
11685;SDS011;5899;51.282;6.094;2024-01-30T10:53:04;4.90;;;4.03;;
11685;SDS011;5899;51.282;6.094;2024-01-30T10:55:38;4.50;;;4.10;;
11685;SDS011;5899;51.282;6.094;2024-01-30T10:58:05;5.53;;;4.18;;
11685;SDS011;5899;51.282;6.094;2024-01-30T11:00:36;5.35;;;4.10;;
11685;SDS011;5899;51.282;6.094;2024-01-30T11:03:08;5.53;;;4.28;;
11685;SDS011;5899;51.282;6.094;2024-01-30T11:08:40;5.38;;;3.55;;
11685;SDS011;5899;51.282;6.094;2024-01-30T11:11:14;6.13;;;4.30;;
11685;SDS011;5899;51.282;6.094;2024-01-30T11:13:49;4.18;;;3.78;;
11685;SDS011;5899;51.282;6.094;2024-01-30T11:16:30;8.57;;;4.45;;
11685;SDS011;5899;51.282;6.094;2024-01-30T11:19:07;7.32;;;4.20;;
11685;SDS011;5899;51.282;6.094;2024-01-30T11:21:46;5.97;;;4.20;;
11685;SDS011;5899;51.282;6.094;2024-01-30T11:24:28;7.35;;;4.88;;
11685;SDS011;5899;51.282;6.094;2024-01-30T11:27:08;6.87;;;4.13;;
11685;SDS011;5899;51.282;6.094;2024-01-30T11:29:49;5.68;;;3.83;;
11685;SDS011;5899;51.282;6.094;2024-01-30T11:32:26;6.78;;;4.03;;
11685;SDS011;5899;51.282;6.094;2024-01-30T11:34:56;7.23;;;4.00;;
11685;SDS011;5899;51.282;6.094;2024-01-30T11:37:38;5.82;;;3.72;;
11685;SDS011;5899;51.282;6.094;2024-01-30T11:40:15;5.40;;;4.00;;
11685;SDS011;5899;51.282;6.094;2024-01-30T11:42:58;5.97;;;4.22;;
11685;SDS011;5899;51.282;6.094;2024-01-30T11:45:52;4.53;;;4.07;;
11685;SDS011;5899;51.282;6.094;2024-01-30T11:48:24;7.93;;;4.43;;
11685;SDS011;5899;51.282;6.094;2024-01-30T11:50:57;5.95;;;4.28;;
11685;SDS011;5899;51.282;6.094;2024-01-30T11:53:26;4.95;;;3.85;;
11685;SDS011;5899;51.282;6.094;2024-01-30T11:55:59;6.68;;;4.50;;
11685;SDS011;5899;51.282;6.094;2024-01-30T11:58:42;5.60;;;4.27;;
11685;SDS011;5899;51.282;6.094;2024-01-30T12:01:13;5.15;;;3.95;;
11685;SDS011;5899;51.282;6.094;2024-01-30T12:03:48;6.38;;;4.65;;
11685;SDS011;5899;51.282;6.094;2024-01-30T12:06:17;7.22;;;4.45;;
11685;SDS011;5899;51.282;6.094;2024-01-30T12:11:48;7.45;;;4.35;;
11685;SDS011;5899;51.282;6.094;2024-01-30T12:14:33;7.28;;;4.60;;
11685;SDS011;5899;51.282;6.094;2024-01-30T12:17:01;7.03;;;4.32;;
11685;SDS011;5899;51.282;6.094;2024-01-30T12:19:29;5.72;;;4.60;;
11685;SDS011;5899;51.282;6.094;2024-01-30T12:21:57;10.57;;;4.68;;
11685;SDS011;5899;51.282;6.094;2024-01-30T12:24:25;8.70;;;4.70;;
11685;SDS011;5899;51.282;6.094;2024-01-30T12:26:53;8.82;;;4.40;;
11685;SDS011;5899;51.282;6.094;2024-01-30T12:29:45;6.80;;;4.67;;
11685;SDS011;5899;51.282;6.094;2024-01-30T12:32:17;9.30;;;4.65;;
11685;SDS011;5899;51.282;6.094;2024-01-30T12:34:59;6.78;;;4.90;;
11685;SDS011;5899;51.282;6.094;2024-01-30T12:37:37;7.33;;;4.50;;
11685;SDS011;5899;51.282;6.094;2024-01-30T12:40:13;6.07;;;4.13;;
11685;SDS011;5899;51.282;6.094;2024-01-30T12:42:41;5.15;;;4.38;;
11685;SDS011;5899;51.282;6.094;2024-01-30T12:45:32;6.13;;;3.97;;
11685;SDS011;5899;51.282;6.094;2024-01-30T12:48:12;8.20;;;4.40;;
11685;SDS011;5899;51.282;6.094;2024-01-30T12:50:46;5.85;;;4.28;;
11685;SDS011;5899;51.282;6.094;2024-01-30T12:53:17;7.82;;;4.65;;
11685;SDS011;5899;51.282;6.094;2024-01-30T12:55:49;6.77;;;4.33;;
11685;SDS011;5899;51.282;6.094;2024-01-30T13:04:25;5.43;;;4.23;;
11685;SDS011;5899;51.282;6.094;2024-01-30T13:06:57;4.72;;;4.13;;
11685;SDS011;5899;51.282;6.094;2024-01-30T13:09:37;7.18;;;4.82;;
11685;SDS011;5899;51.282;6.094;2024-01-30T13:13:12;6.57;;;4.18;;
11685;SDS011;5899;51.282;6.094;2024-01-30T13:15:00;5.80;;;4.07;;
11685;SDS011;5899;51.282;6.094;2024-01-30T13:17:42;5.72;;;4.10;;
11685;SDS011;5899;51.282;6.094;2024-01-30T13:20:14;6.75;;;4.20;;
11685;SDS011;5899;51.282;6.094;2024-01-30T13:22:50;6.53;;;4.30;;
11685;SDS011;5899;51.282;6.094;2024-01-30T13:25:19;6.40;;;4.70;;
11685;SDS011;5899;51.282;6.094;2024-01-30T13:27:55;5.93;;;4.25;;
11685;SDS011;5899;51.282;6.094;2024-01-30T13:30:22;7.28;;;4.13;;
11685;SDS011;5899;51.282;6.094;2024-01-30T13:32:54;6.35;;;4.35;;
11685;SDS011;5899;51.282;6.094;2024-01-30T13:35:24;9.15;;;4.57;;
11685;SDS011;5899;51.282;6.094;2024-01-30T13:37:51;6.68;;;4.22;;
11685;SDS011;5899;51.282;6.094;2024-01-30T13:40:32;9.87;;;4.70;;
11685;SDS011;5899;51.282;6.094;2024-01-30T13:43:02;8.75;;;4.20;;
11685;SDS011;5899;51.282;6.094;2024-01-30T13:45:33;5.45;;;3.92;;
11685;SDS011;5899;51.282;6.094;2024-01-30T13:48:02;5.95;;;4.38;;
11685;SDS011;5899;51.282;6.094;2024-01-30T13:50:36;4.95;;;3.88;;
11685;SDS011;5899;51.282;6.094;2024-01-30T13:53:04;7.97;;;3.97;;
11685;SDS011;5899;51.282;6.094;2024-01-30T13:55:36;6.68;;;4.05;;
11685;SDS011;5899;51.282;6.094;2024-01-30T13:58:05;3.70;;;3.00;;
11685;SDS011;5899;51.282;6.094;2024-01-30T14:00:31;4.63;;;3.53;;
11685;SDS011;5899;51.282;6.094;2024-01-30T14:02:58;5.93;;;3.07;;
11685;SDS011;5899;51.282;6.094;2024-01-30T14:05:27;5.13;;;2.90;;
11685;SDS011;5899;51.282;6.094;2024-01-30T14:08:01;4.60;;;3.10;;
11685;SDS011;5899;51.282;6.094;2024-01-30T14:10:28;4.35;;;2.75;;
11685;SDS011;5899;51.282;6.094;2024-01-30T14:12:55;3.35;;;2.97;;
11685;SDS011;5899;51.282;6.094;2024-01-30T14:15:28;4.90;;;2.63;;
11685;SDS011;5899;51.282;6.094;2024-01-30T14:17:56;2.65;;;2.45;;
11685;SDS011;5899;51.282;6.094;2024-01-30T14:20:28;3.85;;;2.70;;
11685;SDS011;5899;51.282;6.094;2024-01-30T14:22:56;3.33;;;2.40;;
11685;SDS011;5899;51.282;6.094;2024-01-30T14:25:26;3.15;;;2.10;;
11685;SDS011;5899;51.282;6.094;2024-01-30T14:27:55;3.08;;;2.60;;
11685;SDS011;5899;51.282;6.094;2024-01-30T14:30:22;2.30;;;2.03;;
11685;SDS011;5899;51.282;6.094;2024-01-30T14:32:48;2.15;;;1.90;;
11685;SDS011;5899;51.282;6.094;2024-01-30T14:35:34;3.15;;;2.00;;
11685;SDS011;5899;51.282;6.094;2024-01-30T14:38:00;3.05;;;2.00;;
11685;SDS011;5899;51.282;6.094;2024-01-30T14:40:35;2.28;;;1.80;;
11685;SDS011;5899;51.282;6.094;2024-01-30T14:43:05;1.73;;;1.63;;
11685;SDS011;5899;51.282;6.094;2024-01-30T14:45:40;2.15;;;1.50;;
11685;SDS011;5899;51.282;6.094;2024-01-30T14:48:27;3.35;;;1.30;;
11685;SDS011;5899;51.282;6.094;2024-01-30T14:50:59;3.40;;;2.08;;
11685;SDS011;5899;51.282;6.094;2024-01-30T14:53:28;2.03;;;1.40;;
11685;SDS011;5899;51.282;6.094;2024-01-30T14:56:08;1.65;;;1.40;;
11685;SDS011;5899;51.282;6.094;2024-01-30T14:58:37;1.70;;;1.10;;
11685;SDS011;5899;51.282;6.094;2024-01-30T15:01:05;1.35;;;1.25;;
11685;SDS011;5899;51.282;6.094;2024-01-30T15:03:36;2.63;;;1.30;;
11685;SDS011;5899;51.282;6.094;2024-01-30T15:06:05;4.05;;;1.55;;
11685;SDS011;5899;51.282;6.094;2024-01-30T15:08:45;2.70;;;1.73;;
11685;SDS011;5899;51.282;6.094;2024-01-30T15:11:17;3.85;;;1.45;;
11685;SDS011;5899;51.282;6.094;2024-01-30T15:13:51;3.65;;;1.60;;
11685;SDS011;5899;51.282;6.094;2024-01-30T15:16:24;1.08;;;1.00;;
11685;SDS011;5899;51.282;6.094;2024-01-30T15:18:54;2.50;;;1.17;;
11685;SDS011;5899;51.282;6.094;2024-01-30T15:21:24;1.27;;;1.20;;
11685;SDS011;5899;51.282;6.094;2024-01-30T15:23:55;2.13;;;1.40;;
11685;SDS011;5899;51.282;6.094;2024-01-30T15:29:05;3.50;;;1.40;;
11685;SDS011;5899;51.282;6.094;2024-01-30T15:31:33;2.83;;;1.25;;
11685;SDS011;5899;51.282;6.094;2024-01-30T15:34:03;2.05;;;1.40;;
11685;SDS011;5899;51.282;6.094;2024-01-30T15:36:34;1.20;;;1.10;;
11685;SDS011;5899;51.282;6.094;2024-01-30T15:39:03;4.22;;;1.50;;
11685;SDS011;5899;51.282;6.094;2024-01-30T15:41:37;1.38;;;1.27;;
11685;SDS011;5899;51.282;6.094;2024-01-30T15:46:54;1.83;;;1.50;;
11685;SDS011;5899;51.282;6.094;2024-01-30T15:49:20;2.90;;;1.43;;
11685;SDS011;5899;51.282;6.094;2024-01-30T15:51:50;3.30;;;1.40;;
11685;SDS011;5899;51.282;6.094;2024-01-30T15:54:24;1.42;;;1.33;;